Time;durP1;ratioP1;P1;durP2;ratioP2;P2;SDS_P1;SDS_P2;PMS_P1;PMS_P2;Temp;Humidity;BMP_temperature;BMP_pressure;BME280_temperature;BME280_humidity;BME280_pressure;Samples;Min_cycle;Max_cycle;Signal;HPM_P1;HPM_P2
2021/04/11 00:00:34;;;;;;;35.55;16.17;;;4.10;77.10;;;;;;5092478;28;20040;-82
2021/04/11 00:03:01;;;;;;;37.40;17.35;;;4.10;77.10;;;;;;5086601;28;20438;-82
2021/04/11 00:05:30;;;;;;;39.25;17.05;;;4.20;76.00;;;;;;5089001;28;20027;-82
2021/04/11 00:07:56;;;;;;;57.88;23.52;;;4.20;75.80;;;;;;5089543;28;20059;-81
2021/04/11 00:10:29;;;;;;;52.53;23.85;;;4.20;75.80;;;;;;5089893;28;20016;-81
2021/04/11 00:12:55;;;;;;;63.38;23.40;;;4.10;76.60;;;;;;5089068;28;20392;-81
2021/04/11 00:15:21;;;;;;;53.58;22.70;;;4.00;77.30;;;;;;5088980;28;20480;-81
2021/04/11 00:17:47;;;;;;;39.55;18.40;;;3.90;77.50;;;;;;5090271;28;20012;-82
2021/04/11 00:20:13;;;;;;;42.67;17.63;;;3.90;77.50;;;;;;5088903;28;20017;-82
2021/04/11 00:22:39;;;;;;;41.97;19.83;;;3.80;77.20;;;;;;5088526;28;20036;-82
2021/04/11 00:25:10;;;;;;;40.95;21.30;;;3.80;77.20;;;;;;5090438;28;20077;-82
2021/04/11 00:27:35;;;;;;;50.90;21.15;;;3.80;78.70;;;;;;5090289;28;20028;-82
2021/04/11 00:30:03;;;;;;;64.88;29.00;;;3.70;79.60;;;;;;5090852;28;20537;-82
2021/04/11 00:32:28;;;;;;;46.45;19.17;;;3.70;80.80;;;;;;5077751;28;20017;-81
2021/04/11 00:34:54;;;;;;;38.58;16.67;;;3.60;81.80;;;;;;5071772;28;20371;-82
2021/04/11 00:37:20;;;;;;;41.65;18.58;;;3.60;82.00;;;;;;5073191;28;20024;-82
2021/04/11 00:39:45;;;;;;;39.67;21.02;;;3.70;80.80;;;;;;5073075;28;20060;-82
2021/04/11 00:42:43;;;;;;;33.53;16.15;;;3.70;80.00;;;;;;5071911;28;20033;-82
2021/04/11 00:45:16;;;;;;;34.25;17.33;;;3.70;79.80;;;;;;5073157;28;20027;-81
2021/04/11 00:47:42;;;;;;;32.35;15.32;;;3.70;79.40;;;;;;5070016;28;20020;-81
2021/04/11 00:50:11;;;;;;;32.50;16.25;;;3.70;79.40;;;;;;5069597;28;20052;-81
2021/04/11 00:52:37;;;;;;;36.33;16.77;;;3.80;79.10;;;;;;5070712;28;20443;-82
2021/04/11 00:55:03;;;;;;;40.47;19.67;;;3.80;78.80;;;;;;5091114;28;20291;-81
2021/04/11 00:57:30;;;;;;;35.75;18.10;;;3.80;79.00;;;;;;5089747;28;20056;-82
2021/04/11 00:59:56;;;;;;;26.48;16.00;;;4.00;78.40;;;;;;5089479;28;20032;-81
2021/04/11 01:02:22;;;;;;;32.40;14.13;;;4.20;76.90;;;;;;5090317;28;20043;-82
2021/04/11 01:04:48;;;;;;;28.13;14.63;;;4.40;75.30;;;;;;5091763;28;20047;-82
2021/04/11 01:07:15;;;;;;;29.95;14.82;;;4.40;74.60;;;;;;5085504;28;20020;-81
2021/04/11 01:09:44;;;;;;;29.48;15.07;;;4.50;75.70;;;;;;5072660;28;20021;-81
2021/04/11 01:12:13;;;;;;;36.80;16.00;;;4.50;74.10;;;;;;5071542;28;20024;-82
2021/04/11 01:14:40;;;;;;;28.92;15.63;;;4.60;73.70;;;;;;5071315;28;20111;-82
2021/04/11 01:17:11;;;;;;;28.00;15.20;;;4.60;74.20;;;;;;5072078;28;20378;-82
2021/04/11 01:19:39;;;;;;;29.80;15.30;;;4.50;74.20;;;;;;5073674;28;20115;-82
2021/04/11 01:22:27;;;;;;;36.15;15.93;;;4.50;73.80;;;;;;5069340;28;20032;-82
2021/04/11 01:24:56;;;;;;;27.63;14.60;;;4.50;74.10;;;;;;5071152;28;20098;-82
2021/04/11 01:27:28;;;;;;;35.08;16.20;;;4.40;75.50;;;;;;5071377;28;20432;-82
2021/04/11 01:29:55;;;;;;;31.63;16.00;;;4.30;76.00;;;;;;5072615;28;20044;-81
2021/04/11 01:32:21;;;;;;;46.22;22.42;;;4.10;76.10;;;;;;5076166;28;20013;-82
2021/04/11 01:34:48;;;;;;;41.58;20.30;;;4.00;76.70;;;;;;5072513;28;20048;-82
2021/04/11 01:37:17;;;;;;;33.22;17.27;;;3.80;76.50;;;;;;5071276;28;20070;-81
2021/04/11 01:39:45;;;;;;;31.98;17.27;;;3.70;76.90;;;;;;5073778;28;20027;-82
2021/04/11 01:42:13;;;;;;;37.55;18.90;;;3.50;77.80;;;;;;5092448;28;20035;-81
2021/04/11 01:44:42;;;;;;;29.63;17.77;;;3.50;78.90;;;;;;5091278;28;20032;-81
2021/04/11 01:47:08;;;;;;;28.08;15.20;;;3.40;79.60;;;;;;5092712;28;20074;-81
2021/04/11 01:49:35;;;;;;;29.92;15.93;;;3.50;81.10;;;;;;5091320;28;20504;-82
2021/04/11 01:52:18;;;;;;;30.13;15.27;;;3.50;80.90;;;;;;5091312;28;20008;-81
2021/04/11 01:54:45;;;;;;;23.27;13.00;;;3.60;80.80;;;;;;5091240;28;20016;-82
2021/04/11 01:57:30;;;;;;;31.02;15.50;;;3.60;81.10;;;;;;5091386;28;20024;-82
2021/04/11 02:00:27;;;;;;;25.88;13.80;;;3.60;82.10;;;;;;5091096;28;20020;-82
2021/04/11 02:02:58;;;;;;;22.25;12.30;;;3.60;81.40;;;;;;5077142;28;20066;-82
2021/04/11 02:05:25;;;;;;;24.92;11.77;;;3.70;80.60;;;;;;5074723;28;20025;-82
2021/04/11 02:07:53;;;;;;;27.67;13.98;;;3.80;80.00;;;;;;5074693;28;20036;-81
2021/04/11 02:10:25;;;;;;;24.42;14.25;;;3.80;79.60;;;;;;5074663;28;20075;-82
2021/04/11 02:12:52;;;;;;;22.10;12.00;;;3.80;79.80;;;;;;5074639;28;20436;-82
2021/04/11 02:15:21;;;;;;;26.05;12.43;;;3.80;79.40;;;;;;5075841;28;20511;-81
2021/04/11 02:17:48;;;;;;;20.65;11.18;;;3.80;78.90;;;;;;5075742;28;20065;-82
2021/04/11 02:20:15;;;;;;;22.30;11.45;;;3.80;78.60;;;;;;5074447;28;20032;-83
2021/04/11 02:22:41;;;;;;;22.50;12.30;;;3.90;78.20;;;;;;5075606;28;20066;-82
2021/04/11 02:25:17;;;;;;;23.17;12.50;;;3.90;77.70;;;;;;5074354;28;20028;-82
2021/04/11 02:27:43;;;;;;;29.38;13.60;;;3.90;77.40;;;;;;5074442;28;20056;-81
2021/04/11 02:30:12;;;;;;;21.50;11.85;;;3.80;77.50;;;;;;5076320;28;20020;-81
2021/04/11 02:32:38;;;;;;;22.10;12.73;;;3.80;77.80;;;;;;5105227;28;20024;-81
2021/04/11 02:35:05;;;;;;;22.45;12.43;;;3.80;77.60;;;;;;5114867;28;20495;-82
2021/04/11 02:37:34;;;;;;;24.60;13.13;;;3.80;77.60;;;;;;5116185;28;20546;-81
2021/04/11 02:40:01;;;;;;;25.58;12.73;;;3.70;77.90;;;;;;5114720;28;20028;-81
2021/04/11 02:42:31;;;;;;;21.02;11.80;;;3.80;78.10;;;;;;5114771;28;20035;-82
2021/04/11 02:45:04;;;;;;;24.58;11.98;;;3.80;77.90;;;;;;5114537;28;20477;-81
2021/04/11 02:47:30;;;;;;;23.35;12.93;;;3.80;77.70;;;;;;5114611;28;20036;-81
2021/04/11 02:49:56;;;;;;;19.88;11.70;;;3.80;77.50;;;;;;5114547;28;20026;-82
2021/04/11 02:52:34;;;;;;;27.67;13.27;;;3.80;78.20;;;;;;5114542;28;20080;-81
2021/04/11 02:55:00;;;;;;;21.48;11.85;;;3.70;78.20;;;;;;5114482;28;20020;-82
2021/04/11 02:57:27;;;;;;;31.80;13.75;;;3.70;78.90;;;;;;5097796;28;20462;-81
2021/04/11 02:59:54;;;;;;;19.75;11.55;;;3.70;78.20;;;;;;5073587;28;20033;-81
2021/04/11 03:02:23;;;;;;;25.98;10.73;;;3.70;79.00;;;;;;5074889;28;20036;-81
2021/04/11 03:04:51;;;;;;;23.35;12.38;;;3.70;78.30;;;;;;5073607;28;20013;-82
2021/04/11 03:07:31;;;;;;;26.67;13.02;;;3.80;78.40;;;;;;5073622;28;20027;-82
2021/04/11 03:10:11;;;;;;;20.55;11.23;;;3.70;77.90;;;;;;5074680;28;20045;-81
2021/04/11 03:12:38;;;;;;;27.50;12.32;;;3.70;77.90;;;;;;5073497;28;20013;-81
2021/04/11 03:15:07;;;;;;;23.58;12.10;;;3.80;77.80;;;;;;5073467;28;20028;-81
2021/04/11 03:17:34;;;;;;;23.58;11.80;;;3.80;78.10;;;;;;5073230;28;20039;-82
2021/04/11 03:20:14;;;;;;;21.52;11.50;;;3.80;78.30;;;;;;5073593;28;20024;-82
2021/04/11 03:22:41;;;;;;;25.38;13.35;;;3.70;78.20;;;;;;5075029;28;20075;-81
2021/04/11 03:25:09;;;;;;;27.00;13.10;;;3.70;78.00;;;;;;5093537;28;20027;-81
2021/04/11 03:27:44;;;;;;;23.52;11.80;;;3.60;78.30;;;;;;5093299;28;20107;-81
2021/04/11 03:30:18;;;;;;;21.10;13.05;;;3.60;78.90;;;;;;5092746;28;20012;-81
2021/04/11 03:32:53;;;;;;;19.65;11.85;;;3.50;78.50;;;;;;5092873;28;20030;-82
2021/04/11 03:35:23;;;;;;;20.20;10.65;;;3.50;79.00;;;;;;5092659;28;20028;-82
2021/04/11 03:37:51;;;;;;;20.92;9.55;;;3.60;80.10;;;;;;5094262;28;20437;-84
2021/04/11 03:40:21;;;;;;;23.58;10.85;;;3.60;79.90;;;;;;5094358;28;20028;-82
2021/04/11 03:42:50;;;;;;;25.13;12.23;;;3.60;78.90;;;;;;5092853;28;20032;-82
2021/04/11 03:45:17;;;;;;;37.70;17.98;;;3.50;79.20;;;;;;5093067;28;20119;-82
2021/04/11 03:47:50;;;;;;;23.48;13.45;;;3.50;80.30;;;;;;5092801;28;20066;-82
2021/04/11 03:50:26;;;;;;;23.02;11.23;;;3.50;80.50;;;;;;5092880;28;20020;-82
2021/04/11 03:53:30;;;;;;;22.23;10.25;;;3.50;80.00;;;;;;5092019;28;20027;-82
2021/04/11 03:56:02;;;;;;;20.52;9.65;;;3.50;80.30;;;;;;5084025;28;20040;-81
2021/04/11 03:58:32;;;;;;;17.30;9.55;;;3.40;80.00;;;;;;5092871;28;20069;-81
2021/04/11 04:01:06;;;;;;;18.52;9.68;;;3.50;81.00;;;;;;5088772;28;20131;-82
2021/04/11 04:03:35;;;;;;;14.57;10.15;;;3.50;80.60;;;;;;5091636;28;20032;-82
2021/04/11 04:06:18;;;;;;;22.10;10.82;;;3.60;79.10;;;;;;5089281;28;20081;-82
2021/04/11 04:08:44;;;;;;;21.63;11.15;;;3.60;79.80;;;;;;5091807;28;20513;-82
2021/04/11 04:11:33;;;;;;;17.35;9.85;;;3.60;79.50;;;;;;5090785;28;20024;-83
2021/04/11 04:14:10;;;;;;;19.65;10.23;;;3.50;79.70;;;;;;5078307;28;20055;-83
2021/04/11 04:16:55;;;;;;;20.63;10.65;;;3.50;79.40;;;;;;5090213;28;20024;-83
2021/04/11 04:19:30;;;;;;;15.05;9.60;;;3.40;79.40;;;;;;5090490;28;20493;-83
2021/04/11 04:22:28;;;;;;;16.98;10.70;;;3.40;79.80;;;;;;5089672;28;20036;-82
2021/04/11 04:25:08;;;;;;;20.00;10.52;;;3.40;80.30;;;;;;5069107;28;20032;-82
2021/04/11 04:27:59;;;;;;;19.90;10.77;;;3.40;80.40;;;;;;5070181;28;20481;-83
2021/04/11 04:30:34;;;;;;;23.05;11.88;;;3.40;81.50;;;;;;5067579;28;20033;-82
2021/04/11 04:33:14;;;;;;;32.47;14.20;;;3.30;81.90;;;;;;5069598;28;20086;-82
2021/04/11 04:35:48;;;;;;;25.70;12.20;;;3.30;82.30;;;;;;5070707;28;20032;-82
2021/04/11 04:38:26;;;;;;;25.77;11.98;;;3.20;82.80;;;;;;5071811;28;20021;-83
2021/04/11 04:40:57;;;;;;;19.98;11.10;;;3.30;83.10;;;;;;5071699;28;20043;-83
2021/04/11 04:43:56;;;;;;;18.42;8.68;;;3.30;83.60;;;;;;5071726;28;20034;-83
2021/04/11 04:46:45;;;;;;;22.00;9.70;;;3.40;84.20;;;;;;5071848;28;20024;-83
2021/04/11 04:49:43;;;;;;;23.50;11.57;;;3.40;85.40;;;;;;5071910;28;20469;-83
2021/04/11 04:52:17;;;;;;;21.92;10.05;;;3.50;85.20;;;;;;5087034;28;20035;-82
2021/04/11 04:55:09;;;;;;;16.30;9.63;;;3.60;84.90;;;;;;5091923;28;20529;-83
2021/04/11 04:57:42;;;;;;;19.55;9.85;;;3.80;86.40;;;;;;5092021;28;20390;-83
2021/04/11 05:00:23;;;;;;;17.15;9.00;;;4.10;86.90;;;;;;5091665;28;20118;-83
2021/04/11 05:03:01;;;;;;;19.98;10.60;;;4.50;86.20;;;;;;5091636;28;20486;-82
2021/04/11 05:05:29;;;;;;;16.80;9.40;;;4.90;83.90;;;;;;5091489;28;20385;-83
2021/04/11 05:08:07;;;;;;;21.38;10.10;;;5.20;81.80;;;;;;5092827;28;20059;-83
2021/04/11 05:10:42;;;;;;;19.90;9.43;;;5.20;80.30;;;;;;5092760;28;20381;-83
2021/04/11 05:13:16;;;;;;;21.33;11.00;;;5.30;81.20;;;;;;5091476;28;20024;-82
2021/04/11 05:15:44;;;;;;;19.92;9.93;;;5.50;80.30;;;;;;5093075;28;20028;-82
2021/04/11 05:18:22;;;;;;;14.02;9.65;;;5.80;76.30;;;;;;5092422;28;20044;-83
2021/04/11 05:21:10;;;;;;;14.88;9.18;;;6.10;74.30;;;;;;5086161;28;20104;-82
2021/04/11 05:23:51;;;;;;;20.95;10.77;;;6.30;74.50;;;;;;5072698;28;20033;-82
2021/04/11 05:26:22;;;;;;;16.33;8.38;;;6.50;73.90;;;;;;5071445;28;20401;-82
2021/04/11 05:29:09;;;;;;;31.38;10.35;;;6.70;72.70;;;;;;5072480;28;20033;-83
2021/04/11 05:31:36;;;;;;;15.43;9.18;;;6.80;71.20;;;;;;5071359;28;20020;-83
2021/04/11 05:34:06;;;;;;;17.23;9.20;;;7.00;69.90;;;;;;5072472;28;20017;-83
2021/04/11 05:36:40;;;;;;;17.40;10.13;;;7.10;70.50;;;;;;5076062;28;20112;-83
2021/04/11 05:39:54;;;;;;;17.23;8.88;;;7.30;69.00;;;;;;5075285;28;20028;-84
2021/04/11 05:42:42;;;;;;;14.07;10.07;;;7.40;67.40;;;;;;5079649;28;20044;-83
2021/04/11 05:45:23;;;;;;;13.13;8.82;;;7.60;66.40;;;;;;5092791;28;20066;-84
2021/04/11 05:47:55;;;;;;;21.67;8.82;;;7.70;65.00;;;;;;5092207;28;20026;-84
2021/04/11 05:50:34;;;;;;;16.13;9.40;;;7.80;65.20;;;;;;5094787;28;20077;-83
2021/04/11 05:53:14;;;;;;;15.95;8.88;;;8.00;65.40;;;;;;5093762;28;20354;-83
2021/04/11 05:55:47;;;;;;;15.43;9.75;;;8.20;66.10;;;;;;5093397;28;20469;-83
2021/04/11 05:58:22;;;;;;;15.80;9.18;;;8.30;65.10;;;;;;5095367;28;20016;-83
2021/04/11 06:01:06;;;;;;;12.52;8.63;;;8.50;64.70;;;;;;5091130;28;20473;-83
2021/04/11 06:03:35;;;;;;;13.98;8.90;;;8.60;63.50;;;;;;5093664;28;20027;-83
2021/04/11 06:06:18;;;;;;;18.27;8.63;;;8.90;62.60;;;;;;5087270;28;20358;-81
2021/04/11 06:08:43;;;;;;;;;;;9.00;62.40;;;;;;5095463;28;20056;-81
2021/04/11 06:11:30;;;;;;;14.27;8.68;;;9.20;60.40;;;;;;5092258;28;19936;-84
2021/04/11 06:14:05;;;;;;;14.30;8.00;;;9.30;59.80;;;;;;5092035;28;20016;-84
2021/04/11 06:16:32;;;;;;;16.30;8.45;;;9.50;59.20;;;;;;5101205;28;20430;-86
2021/04/11 06:19:00;;;;;;;12.82;8.18;;;9.70;58.30;;;;;;5099080;28;20028;-85
2021/04/11 06:21:28;;;;;;;13.35;9.23;;;9.80;58.60;;;;;;5099323;28;20036;-82
2021/04/11 06:24:05;;;;;;;11.45;7.13;;;10.00;58.70;;;;;;5098135;28;20035;-82
2021/04/11 06:26:38;;;;;;;14.73;8.43;;;10.10;57.30;;;;;;5092228;28;20035;-83
2021/04/11 06:29:15;;;;;;;15.25;7.95;;;10.30;58.00;;;;;;5087406;28;20028;-82
2021/04/11 06:31:57;;;;;;;16.75;8.23;;;10.50;56.90;;;;;;5091344;28;20028;-81
2021/04/11 06:34:30;;;;;;;14.88;6.97;;;10.70;55.90;;;;;;5088251;28;20483;-82
2021/04/11 06:37:02;;;;;;;13.48;7.80;;;10.70;55.50;;;;;;5088622;28;20039;-82
2021/04/11 06:39:31;;;;;;;13.13;7.95;;;10.90;55.30;;;;;;5092045;28;20103;-81
2021/04/11 06:42:17;;;;;;;13.20;7.32;;;11.00;54.90;;;;;;5091441;28;20051;-80
2021/04/11 06:45:04;;;;;;;13.13;6.80;;;11.20;55.70;;;;;;5101243;28;20063;-81
2021/04/11 06:47:57;;;;;;;13.10;7.30;;;11.40;54.30;;;;;;5086543;28;20044;-81
2021/04/11 06:50:50;;;;;;;11.15;7.00;;;11.60;53.50;;;;;;5089255;28;20334;-81
2021/04/11 06:53:37;;;;;;;11.07;6.80;;;11.80;53.20;;;;;;5090302;28;20012;-80
2021/04/11 06:56:40;;;;;;;11.75;6.57;;;12.00;52.20;;;;;;5088343;28;20392;-83
2021/04/11 06:59:09;;;;;;;11.88;7.05;;;12.10;51.90;;;;;;5085594;28;20539;-85
2021/04/11 07:01:49;;;;;;;11.30;7.13;;;12.30;51.80;;;;;;5090463;28;20040;-85
2021/04/11 07:04:36;;;;;;;10.80;6.80;;;12.30;51.50;;;;;;5088196;28;20036;-83
2021/04/11 07:07:30;;;;;;;15.10;7.85;;;12.50;51.80;;;;;;5092670;28;20024;-84
2021/04/11 07:10:16;;;;;;;10.40;5.85;;;12.70;51.20;;;;;;5089273;28;20486;-87
2021/04/11 07:13:13;;;;;;;11.98;6.95;;;12.80;50.70;;;;;;5090901;28;20087;-87
2021/04/11 07:16:15;;;;;;;10.27;6.22;;;13.00;50.00;;;;;;5091356;28;20024;-87
2021/04/11 07:18:59;;;;;;;13.88;5.90;;;13.10;49.20;;;;;;5084848;28;20032;-88
2021/04/11 07:21:31;;;;;;;9.52;5.38;;;13.30;48.10;;;;;;5088928;28;20378;-87
2021/04/11 07:24:24;;;;;;;7.75;5.18;;;13.50;47.10;;;;;;5087914;28;20022;-88
2021/04/11 07:27:08;;;;;;;;;;;13.70;46.70;;;;;;5088254;28;21074;-88
2021/04/11 07:29:52;;;;;;;12.07;6.50;;;13.80;46.00;;;;;;5087354;28;19917;-87
2021/04/11 07:32:41;;;;;;;7.38;4.75;;;13.90;46.00;;;;;;5088173;28;20429;-89
2021/04/11 07:35:22;;;;;;;5.75;4.45;;;14.10;45.80;;;;;;5085568;28;20060;-88
2021/04/11 07:38:12;;;;;;;9.63;4.80;;;14.20;45.80;;;;;;5087334;28;20793;-89
2021/04/11 07:40:53;;;;;;;9.27;5.50;;;14.30;45.40;;;;;;5083510;28;20279;-88
2021/04/11 07:43:49;;;;;;;11.70;5.38;;;14.40;45.90;;;;;;5084586;28;20385;-88
2021/04/11 07:46:33;;;;;;;8.30;5.20;;;14.50;45.50;;;;;;5086289;28;20485;-88
2021/04/11 07:49:40;;;;;;;5.40;3.85;;;14.70;45.90;;;;;;5087590;28;20501;-88
2021/04/11 07:52:33;;;;;;;8.85;5.05;;;14.80;44.80;;;;;;5064788;28;20040;-87
2021/04/11 07:55:08;;;;;;;9.15;4.80;;;15.00;44.10;;;;;;5088294;28;20026;-88
2021/04/11 07:57:33;;;;;;;5.38;3.67;;;15.10;43.80;;;;;;5088251;28;20035;-88
2021/04/11 08:00:08;;;;;;;4.90;3.38;;;15.20;43.70;;;;;;5087537;28;20028;-88
2021/04/11 08:03:08;;;;;;;8.35;3.55;;;15.20;41.90;;;;;;5087977;28;20493;-87
2021/04/11 08:05:39;;;;;;;4.70;2.70;;;15.30;41.40;;;;;;5086782;28;20134;-87
2021/04/11 08:08:23;;;;;;;6.38;2.95;;;15.40;41.40;;;;;;5089200;28;20098;-88
2021/04/11 08:11:01;;;;;;;4.95;3.08;;;15.40;41.30;;;;;;5088834;28;20111;-88
2021/04/11 08:13:41;;;;;;;5.28;3.50;;;15.50;42.50;;;;;;5090135;28;20028;-86
2021/04/11 08:16:44;;;;;;;12.40;4.15;;;15.60;42.20;;;;;;5087905;28;20024;-88
2021/04/11 08:19:13;;;;;;;;;;;15.70;42.10;;;;;;5088861;28;20149;-88
2021/04/11 08:21:50;;;;;;;5.65;3.38;;;15.80;41.00;;;;;;5094077;28;20018;-87
2021/04/11 08:24:33;;;;;;;20.10;4.25;;;15.90;41.40;;;;;;5097899;28;20393;-87
2021/04/11 08:27:20;;;;;;;8.85;3.70;;;16.10;41.60;;;;;;5088677;28;20032;-87
2021/04/11 08:30:16;;;;;;;6.80;3.95;;;16.20;41.00;;;;;;5088857;28;20414;-87
2021/04/11 08:33:09;;;;;;;8.65;3.55;;;16.50;40.40;;;;;;5087173;28;20110;-87
2021/04/11 08:36:07;;;;;;;4.03;2.28;;;16.70;39.80;;;;;;5086083;28;20031;-87
2021/04/11 08:39:12;;;;;;;4.82;2.67;;;16.70;38.70;;;;;;5090607;28;20028;-87
2021/04/11 08:42:15;;;;;;;4.10;2.78;;;16.90;39.10;;;;;;5089553;28;20035;-87
2021/04/11 08:45:09;;;;;;;6.22;2.67;;;17.10;38.30;;;;;;5087737;28;20089;-87
2021/04/11 08:47:59;;;;;;;4.05;1.90;;;17.20;37.00;;;;;;5091150;28;20091;-87
2021/04/11 08:50:38;;;;;;;4.00;2.00;;;17.40;37.00;;;;;;5088611;28;20024;-87
2021/04/11 08:53:27;;;;;;;3.72;2.03;;;17.40;36.40;;;;;;5089943;28;20028;-87
2021/04/11 08:56:13;;;;;;;4.35;2.10;;;17.50;36.20;;;;;;5087199;28;20508;-87
2021/04/11 08:58:48;;;;;;;4.78;2.25;;;17.50;35.80;;;;;;5088884;28;20028;-87
2021/04/11 09:01:48;;;;;;;16.48;7.38;;;17.50;35.20;;;;;;5088950;28;20576;-87
2021/04/11 09:04:43;;;;;;;10.43;6.28;;;17.60;35.60;;;;;;5080605;28;20036;-87
2021/04/11 09:07:17;;;;;;;4.75;3.10;;;17.60;35.40;;;;;;5090762;28;20024;-87
2021/04/11 09:10:06;;;;;;;6.43;2.25;;;17.60;35.20;;;;;;5085653;28;20024;-86
2021/04/11 09:12:43;;;;;;;2.95;1.80;;;17.60;34.90;;;;;;5088054;28;20016;-86
2021/04/11 09:15:48;;;;;;;5.90;2.65;;;17.70;35.10;;;;;;5085861;28;20494;-86
2021/04/11 09:18:19;;;;;;;5.22;2.30;;;18.00;35.60;;;;;;5087038;28;20036;-86
2021/04/11 09:21:03;;;;;;;4.88;1.98;;;17.90;34.20;;;;;;5087360;28;20024;-87
2021/04/11 09:23:39;;;;;;;4.18;2.03;;;18.00;34.40;;;;;;5087762;28;20169;-86
2021/04/11 09:26:21;;;;;;;6.55;2.15;;;18.00;34.70;;;;;;5085169;28;20023;-86
2021/04/11 09:29:22;;;;;;;10.80;2.35;;;18.10;34.60;;;;;;5087382;28;20012;-82
2021/04/11 09:32:07;;;;;;;8.05;3.80;;;18.10;35.00;;;;;;5086591;28;20020;-85
2021/04/11 09:35:06;;;;;;;9.20;4.00;;;18.10;34.30;;;;;;5087686;28;20051;-85
2021/04/11 09:37:47;;;;;;;4.15;2.05;;;18.20;34.70;;;;;;5082294;28;20035;-85
2021/04/11 09:40:38;;;;;;;4.47;1.95;;;18.20;34.60;;;;;;5087662;28;20385;-86
2021/04/11 09:43:46;;;;;;;5.75;2.47;;;18.20;34.70;;;;;;5087357;28;20040;-86
2021/04/11 09:46:49;;;;;;;4.55;2.10;;;18.30;35.00;;;;;;5020046;28;20049;-85
2021/04/11 09:49:23;;;;;;;3.80;2.30;;;18.20;34.50;;;;;;5094463;28;20066;-83
2021/04/11 09:52:27;;;;;;;5.95;2.75;;;18.10;34.30;;;;;;5096676;28;20020;-85
2021/04/11 09:55:11;;;;;;;;;;;18.00;34.10;;;;;;5082992;28;20502;-86
2021/04/11 09:58:09;;;;;;;2.65;2.05;;;18.00;34.40;;;;;;5086009;28;20000;-85
2021/04/11 10:00:52;;;;;;;3.97;2.42;;;18.10;35.50;;;;;;5089545;28;20056;-84
2021/04/11 10:03:36;;;;;;;10.10;3.42;;;18.00;35.50;;;;;;5090185;28;20040;-84
2021/04/11 10:06:38;;;;;;;4.60;1.92;;;18.00;35.30;;;;;;5085665;28;20380;-83
2021/04/11 10:09:29;;;;;;;5.50;2.38;;;18.00;35.30;;;;;;5086688;28;20024;-85
2021/04/11 10:12:07;;;;;;;6.22;2.88;;;18.00;35.30;;;;;;5071402;28;20067;-85
2021/04/11 10:15:01;;;;;;;6.47;2.42;;;17.80;35.10;;;;;;5088227;28;20393;-84
2021/04/11 10:17:38;;;;;;;4.90;2.35;;;17.60;35.30;;;;;;5094613;28;20028;-83
2021/04/11 10:20:23;;;;;;;2.58;1.85;;;17.50;36.00;;;;;;5088578;28;20025;-83
2021/04/11 10:22:58;;;;;;;23.02;4.03;;;17.60;35.60;;;;;;5088546;28;20063;-84
2021/04/11 10:25:53;;;;;;;5.78;3.20;;;17.60;35.80;;;;;;5088297;28;20043;-82
2021/04/11 10:28:25;;;;;;;4.30;2.20;;;17.70;35.70;;;;;;5079625;28;20043;-82
2021/04/11 10:31:20;;;;;;;6.93;2.85;;;17.80;35.80;;;;;;5091134;28;20078;-82
2021/04/11 10:34:12;;;;;;;5.40;2.50;;;18.00;36.10;;;;;;5089715;28;20470;-84
2021/04/11 10:36:52;;;;;;;4.63;2.40;;;18.20;35.60;;;;;;5089576;28;20032;-83
2021/04/11 10:39:43;;;;;;;3.67;2.10;;;18.30;35.40;;;;;;5089358;28;20420;-83
2021/04/11 10:42:15;;;;;;;6.15;2.60;;;18.50;34.80;;;;;;5088257;28;20059;-83
2021/04/11 10:44:52;;;;;;;5.63;2.13;;;18.80;34.70;;;;;;5089211;28;20086;-83
2021/04/11 10:47:57;;;;;;;2.50;1.80;;;18.90;34.60;;;;;;5088569;28;20765;-83
2021/04/11 10:50:33;;;;;;;3.97;1.45;;;18.90;33.80;;;;;;5090225;28;20024;-83
2021/04/11 10:53:10;;;;;;;3.25;1.70;;;18.90;33.50;;;;;;5087617;28;20024;-84
2021/04/11 10:55:57;;;;;;;4.03;1.70;;;18.80;33.60;;;;;;5089264;28;20504;-85
2021/04/11 10:58:34;;;;;;;7.07;2.97;;;18.70;33.70;;;;;;5090416;28;20033;-83
2021/04/11 11:01:33;;;;;;;9.73;4.15;;;18.90;34.20;;;;;;5085820;28;21031;-83
2021/04/11 11:04:04;;;;;;;11.00;4.70;;;19.00;33.80;;;;;;5086165;28;20044;-81
2021/04/11 11:06:39;;;;;;;3.30;2.00;;;19.10;33.40;;;;;;5087815;28;20679;-83
2021/04/11 11:09:17;;;;;;;2.00;1.05;;;19.40;33.40;;;;;;5091598;28;20554;-82
2021/04/11 11:12:04;;;;;;;4.07;1.50;;;19.70;33.50;;;;;;5086346;28;20028;-81
2021/04/11 11:14:51;;;;;;;4.38;1.48;;;19.90;33.60;;;;;;5087237;28;20413;-81
2021/04/11 11:17:57;;;;;;;5.68;1.65;;;20.30;34.00;;;;;;5088301;28;20020;-83
2021/04/11 11:20:59;;;;;;;2.83;1.65;;;20.60;33.50;;;;;;5087666;28;20049;-83
2021/04/11 11:23:48;;;;;;;9.43;1.45;;;20.50;32.70;;;;;;5086962;28;20044;-82
2021/04/11 11:26:33;;;;;;;4.35;1.70;;;20.20;32.90;;;;;;5088980;28;20023;-82
2021/04/11 11:29:13;;;;;;;9.90;2.75;;;20.20;32.60;;;;;;5091381;28;20064;-81
2021/04/11 11:31:45;;;;;;;11.13;2.45;;;20.30;33.10;;;;;;5087402;28;20032;-81
2021/04/11 11:34:25;;;;;;;2.13;1.00;;;20.30;33.30;;;;;;5101096;28;20012;-82
2021/04/11 11:37:38;;;;;;;3.55;1.88;;;20.20;32.90;;;;;;5101067;28;20023;-81
2021/04/11 11:40:35;;;;;;;5.13;2.15;;;19.90;33.00;;;;;;5092311;28;20434;-82
2021/04/11 11:43:22;;;;;;;4.65;1.70;;;20.10;33.80;;;;;;5100161;28;20032;-82
2021/04/11 11:46:23;;;;;;;17.92;8.98;;;20.10;33.60;;;;;;5099537;28;20046;-84
2021/04/11 11:49:06;;;;;;;5.80;3.03;;;20.20;34.10;;;;;;5104419;28;20016;-83
2021/04/11 11:51:34;;;;;;;;;;;19.90;34.00;;;;;;5090549;28;20032;-82
2021/04/11 11:54:22;;;;;;;3.25;2.30;;;19.40;33.70;;;;;;5091391;28;19908;-82
2021/04/11 11:57:11;;;;;;;6.25;3.83;;;19.30;34.20;;;;;;5097082;28;20047;-82
2021/04/11 12:00:00;;;;;;;3.78;1.85;;;19.20;35.30;;;;;;5099996;28;20475;-83
2021/04/11 12:02:34;;;;;;;2.75;1.50;;;19.00;35.60;;;;;;5092922;28;20503;-83
2021/04/11 12:05:31;;;;;;;6.20;3.67;;;18.70;35.80;;;;;;5094926;28;20089;-83
2021/04/11 12:08:31;;;;;;;2.03;1.10;;;18.40;36.10;;;;;;5096085;28;20023;-83
2021/04/11 12:11:33;;;;;;;4.35;3.25;;;18.20;36.60;;;;;;5084007;28;20107;-83
2021/04/11 12:14:31;;;;;;;1.73;1.52;;;18.10;37.40;;;;;;5080509;28;20114;-83
2021/04/11 12:17:06;;;;;;;3.45;2.05;;;18.10;37.70;;;;;;5086119;28;20024;-82
2021/04/11 12:19:57;;;;;;;3.15;1.55;;;18.00;37.60;;;;;;5089550;28;20538;-82
2021/04/11 12:22:52;;;;;;;4.93;1.73;;;17.70;37.60;;;;;;5080099;28;20047;-82
2021/04/11 12:25:29;;;;;;;7.40;2.25;;;17.60;38.40;;;;;;5102158;28;20066;-83
2021/04/11 12:27:55;;;;;;;5.35;1.58;;;17.40;38.90;;;;;;5101201;28;20028;-83
2021/04/11 12:30:35;;;;;;;8.60;1.40;;;17.40;39.60;;;;;;5097995;28;20111;-84
2021/04/11 12:33:26;;;;;;;2.80;1.40;;;17.10;40.00;;;;;;5102051;28;20020;-84
2021/04/11 12:36:06;;;;;;;0.90;0.90;;;17.10;40.60;;;;;;5098795;28;20024;-84
2021/04/11 12:38:57;;;;;;;11.18;1.92;;;16.90;40.90;;;;;;5092173;28;20051;-84
2021/04/11 12:41:32;;;;;;;4.10;1.63;;;16.80;41.20;;;;;;5093329;28;20028;-83
2021/04/11 12:44:07;;;;;;;2.50;1.67;;;16.70;41.50;;;;;;5091284;28;20021;-83
2021/04/11 12:46:39;;;;;;;3.28;2.03;;;16.50;41.90;;;;;;5098044;28;20438;-84
2021/04/11 12:49:25;;;;;;;8.68;3.30;;;16.60;42.30;;;;;;5090180;28;20029;-83
2021/04/11 12:52:04;;;;;;;9.88;5.55;;;16.60;42.40;;;;;;5097981;28;20358;-83
2021/04/11 12:54:43;;;;;;;7.30;3.03;;;16.60;42.70;;;;;;5097434;28;20539;-83
2021/04/11 12:57:27;;;;;;;1.80;1.20;;;16.50;42.90;;;;;;5095141;28;20080;-84
2021/04/11 13:00:13;;;;;;;4.68;2.50;;;16.40;43.10;;;;;;5095889;28;20490;-83
2021/04/11 13:03:33;;;;;;;5.93;2.00;;;16.30;43.60;;;;;;5099966;28;20541;-82
2021/04/11 13:06:17;;;;;;;4.43;1.48;;;16.40;43.80;;;;;;5037744;28;20060;-83
2021/04/11 13:09:17;;;;;;;3.60;1.20;;;16.70;43.80;;;;;;5088356;28;20032;-83
2021/04/11 13:11:49;;;;;;;2.53;1.13;;;16.90;43.50;;;;;;5111227;28;20028;-84
2021/04/11 13:14:38;;;;;;;2.95;1.75;;;16.80;43.30;;;;;;5097489;28;20024;-84
2021/04/11 13:17:25;;;;;;;4.40;1.80;;;17.00;43.10;;;;;;5097347;28;20024;-83
2021/04/11 13:19:58;;;;;;;6.22;2.63;;;16.90;42.60;;;;;;5093099;28;20389;-83
2021/04/11 13:22:28;;;;;;;1.67;1.08;;;17.00;42.90;;;;;;5094766;28;20052;-83
2021/04/11 13:25:16;;;;;;;3.28;1.58;;;16.90;42.70;;;;;;5094600;28;20016;-83
2021/04/11 13:28:08;;;;;;;2.30;1.65;;;16.80;43.70;;;;;;5097186;28;20313;-82
2021/04/11 13:30:46;;;;;;;1.50;1.08;;;16.70;43.30;;;;;;5100699;28;20036;-83
2021/04/11 13:33:24;;;;;;;2.88;1.40;;;16.70;43.80;;;;;;5093008;28;20037;-83
2021/04/11 13:35:58;;;;;;;4.55;1.17;;;16.50;43.80;;;;;;5096195;28;20022;-84
2021/04/11 13:38:38;;;;;;;2.15;1.27;;;16.50;43.80;;;;;;5087674;28;20032;-84
2021/04/11 13:41:24;;;;;;;5.32;1.20;;;16.20;43.90;;;;;;5085654;28;20069;-84
2021/04/11 13:44:01;;;;;;;3.78;1.40;;;16.10;44.40;;;;;;5090531;28;20032;-82
2021/04/11 13:47:02;;;;;;;1.40;1.10;;;16.20;44.90;;;;;;5091608;28;20028;-82